Time;durP1;ratioP1;P1;durP2;ratioP2;P2;SDS_P1;SDS_P2;PMS_P1;PMS_P2;Temp;Humidity;BMP_temperature;BMP_pressure;BME280_temperature;BME280_humidity;BME280_pressure;Samples;Min_cycle;Max_cycle;Signal;HPM_P1;HPM_P2
2021/08/26 00:06:49;;;;;;;2.47;1.00;;;16.40;99.90;;;;;;4998628;28;20037;-72
2021/08/26 00:09:17;;;;;;;4.43;1.35;;;16.40;99.90;;;;;;4998279;28;20499;-72
2021/08/26 00:11:44;;;;;;;3.85;1.30;;;16.50;99.90;;;;;;4994301;28;20038;-72
2021/08/26 00:14:12;;;;;;;1.55;1.00;;;16.50;99.90;;;;;;4993178;28;20070;-72
2021/08/26 00:16:41;;;;;;;4.63;1.40;;;16.50;99.90;;;;;;5011038;28;20042;-72
2021/08/26 00:19:08;;;;;;;5.72;1.23;;;16.50;99.90;;;;;;5010122;28;20030;-72
2021/08/26 00:21:33;;;;;;;3.67;1.45;;;16.40;99.90;;;;;;5004053;28;20030;-72
2021/08/26 00:23:59;;;;;;;5.65;1.23;;;16.50;99.90;;;;;;5013758;28;20434;-73
2021/08/26 00:26:25;;;;;;;4.15;1.63;;;16.50;99.90;;;;;;4994129;28;20390;-73
2021/08/26 00:28:50;;;;;;;3.00;1.90;;;16.40;99.90;;;;;;4993135;28;20129;-72
2021/08/26 00:31:16;;;;;;;5.63;1.98;;;16.40;99.90;;;;;;4994043;28;20410;-72
2021/08/26 00:33:42;;;;;;;2.92;1.98;;;16.40;99.90;;;;;;5017646;28;20038;-72
2021/08/26 00:36:07;;;;;;;3.42;1.00;;;16.40;99.90;;;;;;5017788;28;20030;-73
2021/08/26 00:38:34;;;;;;;2.47;1.33;;;16.40;99.90;;;;;;5002391;28;20060;-73
2021/08/26 00:40:59;;;;;;;4.75;1.40;;;16.40;99.90;;;;;;5024512;28;20053;-72
2021/08/26 00:43:30;;;;;;;7.22;1.30;;;16.40;99.90;;;;;;5014697;28;20025;-73
2021/08/26 00:45:55;;;;;;;7.03;1.60;;;16.40;99.90;;;;;;5029548;28;20041;-72
2021/08/26 00:48:22;;;;;;;3.47;1.38;;;16.50;99.90;;;;;;5021836;28;20029;-73
2021/08/26 00:50:53;;;;;;;2.07;1.33;;;16.50;99.90;;;;;;5030334;28;20119;-73
2021/08/26 00:53:23;;;;;;;4.30;1.38;;;16.50;99.90;;;;;;5019708;28;20547;-73
2021/08/26 00:55:50;;;;;;;3.85;1.20;;;16.50;99.90;;;;;;5031080;28;20025;-72
2021/08/26 00:58:16;;;;;;;4.13;1.70;;;16.50;99.90;;;;;;5017350;28;20099;-73
2021/08/26 01:00:49;;;;;;;5.15;1.65;;;16.50;99.90;;;;;;5029811;28;20168;-72
2021/08/26 01:03:20;;;;;;;7.07;1.73;;;16.50;99.90;;;;;;5020252;28;20049;-73
2021/08/26 01:05:53;;;;;;;8.60;1.67;;;16.50;99.90;;;;;;5026021;28;20504;-73
2021/08/26 01:08:21;;;;;;;4.50;2.30;;;16.50;99.90;;;;;;5015944;28;20022;-72
2021/08/26 01:10:53;;;;;;;7.05;1.65;;;16.50;99.90;;;;;;5012627;28;20038;-73
2021/08/26 01:13:19;;;;;;;3.85;1.40;;;16.50;99.90;;;;;;5019298;28;20486;-72
2021/08/26 01:16:06;;;;;;;5.70;1.58;;;16.50;99.90;;;;;;5030148;28;20108;-72
2021/08/26 01:18:41;;;;;;;11.02;2.42;;;16.50;99.90;;;;;;5019028;28;20430;-72
2021/08/26 01:21:08;;;;;;;8.43;3.55;;;16.40;99.90;;;;;;4996948;28;20509;-73
2021/08/26 01:23:36;;;;;;;7.72;1.88;;;16.30;99.90;;;;;;5018549;28;20060;-73
2021/08/26 01:26:16;;;;;;;14.30;2.83;;;16.30;99.90;;;;;;5004212;28;20021;-73
2021/08/26 01:28:46;;;;;;;6.07;2.47;;;16.30;99.90;;;;;;5024410;28;20107;-73
2021/08/26 01:31:11;;;;;;;7.15;2.40;;;16.30;99.90;;;;;;5031557;28;20037;-73
2021/08/26 01:33:38;;;;;;;16.10;3.65;;;16.30;99.90;;;;;;5017437;28;20447;-72
2021/08/26 01:36:07;;;;;;;9.55;2.33;;;16.30;99.90;;;;;;5014648;28;20061;-73
2021/08/26 01:38:34;;;;;;;7.80;2.60;;;16.30;99.90;;;;;;5025310;28;20030;-72
2021/08/26 01:40:59;;;;;;;8.07;2.77;;;16.30;99.90;;;;;;5006576;28;20025;-73
2021/08/26 01:43:26;;;;;;;9.70;2.85;;;16.30;99.90;;;;;;5014563;28;20285;-73
2021/08/26 01:45:52;;;;;;;12.03;3.77;;;16.30;99.90;;;;;;5012492;28;20036;-72
2021/08/26 01:48:19;;;;;;;10.70;2.45;;;16.30;99.90;;;;;;5012884;28;20025;-72
2021/08/26 01:50:46;;;;;;;12.25;2.92;;;16.30;99.90;;;;;;5013186;28;20030;-72
2021/08/26 01:53:13;;;;;;;11.10;2.60;;;16.30;99.90;;;;;;4996204;28;20608;-73
2021/08/26 01:55:42;;;;;;;11.15;2.53;;;16.30;99.90;;;;;;5018295;28;20429;-72
2021/08/26 01:58:09;;;;;;;12.38;3.25;;;16.30;99.90;;;;;;5019041;28;20536;-72
2021/08/26 02:00:35;;;;;;;21.48;3.42;;;16.20;99.90;;;;;;5031252;28;20576;-72
2021/08/26 02:03:00;;;;;;;9.55;2.40;;;16.20;99.90;;;;;;5017839;28;20117;-72
2021/08/26 02:05:26;;;;;;;11.00;2.72;;;16.10;99.90;;;;;;5017608;28;20081;-72
2021/08/26 02:07:54;;;;;;;11.50;3.03;;;16.10;99.90;;;;;;5008386;28;20486;-72
2021/08/26 02:10:20;;;;;;;10.57;2.80;;;16.10;99.90;;;;;;5010578;28;20410;-72
2021/08/26 02:12:45;;;;;;;17.58;3.65;;;16.10;99.90;;;;;;4999608;28;20367;-72
2021/08/26 02:15:11;;;;;;;19.48;2.90;;;16.10;99.90;;;;;;5011861;28;20037;-73
2021/08/26 02:17:37;;;;;;;17.77;2.80;;;16.00;99.90;;;;;;5014287;28;20030;-73
2021/08/26 02:20:05;;;;;;;10.70;2.97;;;16.00;99.90;;;;;;5015087;28;20037;-73
2021/08/26 02:22:30;;;;;;;11.57;2.40;;;16.00;99.90;;;;;;5014532;28;20022;-72
2021/08/26 02:24:56;;;;;;;11.15;3.65;;;16.00;99.90;;;;;;5015406;28;20144;-73
2021/08/26 02:27:21;;;;;;;16.83;2.92;;;16.00;99.90;;;;;;5012707;28;20509;-72
2021/08/26 02:29:47;;;;;;;11.48;2.55;;;16.00;99.90;;;;;;5016217;28;20504;-72
2021/08/26 02:32:13;;;;;;;11.07;3.20;;;16.00;99.90;;;;;;4998639;28;20153;-72
2021/08/26 02:34:38;;;;;;;9.77;2.80;;;16.00;99.90;;;;;;4996459;28;20030;-72
2021/08/26 02:37:04;;;;;;;9.02;3.58;;;15.90;99.90;;;;;;4995320;28;20049;-72
2021/08/26 02:39:30;;;;;;;18.98;3.75;;;15.90;99.90;;;;;;5008861;28;20079;-72
2021/08/26 02:41:56;;;;;;;13.05;2.97;;;16.00;99.90;;;;;;4998647;28;20398;-72
2021/08/26 02:44:22;;;;;;;13.38;2.95;;;16.00;99.90;;;;;;4996321;28;20043;-72
2021/08/26 02:46:47;;;;;;;9.20;2.53;;;16.00;99.90;;;;;;5010169;28;20092;-72
2021/08/26 02:49:13;;;;;;;14.90;2.85;;;15.90;99.90;;;;;;5014745;28;20053;-72
2021/08/26 02:51:38;;;;;;;15.60;3.55;;;16.00;99.90;;;;;;5001463;28;20045;-72
2021/08/26 02:54:04;;;;;;;12.95;2.85;;;15.90;99.90;;;;;;5025799;28;20026;-72
2021/08/26 02:56:30;;;;;;;11.82;2.92;;;16.00;99.90;;;;;;5009749;28;20030;-72
2021/08/26 02:58:55;;;;;;;8.57;2.67;;;16.00;99.90;;;;;;5013258;28;20134;-72
2021/08/26 03:01:21;;;;;;;18.73;2.58;;;15.90;99.90;;;;;;5002845;28;20073;-72
2021/08/26 03:03:46;;;;;;;10.27;2.50;;;15.90;99.90;;;;;;4997185;28;20027;-72
2021/08/26 03:06:12;;;;;;;12.70;2.38;;;15.90;99.90;;;;;;5005449;28;20041;-72
2021/08/26 03:08:37;;;;;;;11.95;2.65;;;15.90;99.90;;;;;;5008733;28;20105;-72
2021/08/26 03:11:03;;;;;;;12.45;2.45;;;15.90;99.90;;;;;;5002556;28;20037;-72
2021/08/26 03:13:29;;;;;;;14.73;3.92;;;15.80;99.90;;;;;;5015784;28;20398;-72
2021/08/26 03:15:54;;;;;;;11.43;3.55;;;15.80;99.90;;;;;;4996159;28;20023;-72
2021/08/26 03:18:20;;;;;;;12.60;2.47;;;15.80;99.90;;;;;;5006030;28;20063;-73
2021/08/26 03:20:47;;;;;;;17.55;3.65;;;15.80;99.90;;;;;;5006714;28;20042;-72
2021/08/26 03:23:12;;;;;;;15.68;3.10;;;15.80;99.90;;;;;;5024455;28;20022;-72
2021/08/26 03:25:38;;;;;;;9.45;2.40;;;15.70;99.90;;;;;;4995268;28;20037;-72
2021/08/26 03:28:04;;;;;;;14.35;2.30;;;15.70;99.90;;;;;;5001081;28;20030;-72
2021/08/26 03:30:30;;;;;;;14.02;3.00;;;15.70;99.90;;;;;;5007297;28;20026;-73
2021/08/26 03:32:55;;;;;;;11.68;2.88;;;15.70;99.90;;;;;;5014079;28;20022;-72
2021/08/26 03:35:21;;;;;;;14.07;3.00;;;15.70;99.90;;;;;;5005756;28;20029;-73
2021/08/26 03:37:46;;;;;;;20.77;2.97;;;15.70;99.90;;;;;;4995375;28;20100;-72
2021/08/26 03:40:12;;;;;;;12.85;3.63;;;15.70;99.90;;;;;;4999327;28;20049;-72
2021/08/26 03:42:38;;;;;;;11.45;2.22;;;15.80;99.90;;;;;;4995062;28;20037;-72
2021/08/26 03:45:05;;;;;;;19.88;3.67;;;15.70;99.90;;;;;;4997529;28;20553;-72
2021/08/26 03:47:31;;;;;;;22.38;2.55;;;15.80;99.90;;;;;;4997671;28;20378;-72
2021/08/26 03:49:56;;;;;;;7.13;1.73;;;15.80;99.90;;;;;;5010278;28;20117;-72
2021/08/26 03:52:22;;;;;;;14.07;2.53;;;15.80;99.90;;;;;;5007561;28;20491;-72
2021/08/26 03:54:48;;;;;;;9.52;1.92;;;15.80;99.90;;;;;;5009846;28;20046;-72
2021/08/26 03:57:13;;;;;;;15.70;2.65;;;15.90;99.90;;;;;;4997514;28;20026;-72
2021/08/26 03:59:39;;;;;;;11.93;2.25;;;15.90;99.90;;;;;;5004977;28;20029;-72
2021/08/26 04:02:05;;;;;;;8.80;2.38;;;15.80;99.90;;;;;;4994915;28;20038;-72
2021/08/26 04:04:30;;;;;;;11.18;1.75;;;15.80;99.90;;;;;;5012877;28;20029;-72
2021/08/26 04:06:56;;;;;;;9.52;1.63;;;15.70;99.90;;;;;;5014434;28;20032;-72
2021/08/26 04:09:21;;;;;;;10.38;1.63;;;15.80;99.90;;;;;;5006342;28;20030;-72
2021/08/26 04:11:47;;;;;;;11.45;2.42;;;15.80;99.90;;;;;;4995391;28;20043;-72
2021/08/26 04:14:13;;;;;;;18.48;2.58;;;15.80;99.90;;;;;;4996419;28;20042;-72
2021/08/26 04:16:38;;;;;;;6.70;2.10;;;15.80;99.90;;;;;;5002535;28;20145;-72
2021/08/26 04:19:04;;;;;;;6.85;1.98;;;15.80;99.90;;;;;;5009172;28;20113;-72
2021/08/26 04:21:29;;;;;;;12.20;2.15;;;15.90;99.90;;;;;;4995812;28;20031;-72
2021/08/26 04:23:55;;;;;;;10.18;2.42;;;15.90;99.90;;;;;;4999623;28;20407;-72
2021/08/26 04:26:21;;;;;;;9.05;1.52;;;15.80;99.90;;;;;;4998674;28;20091;-72
2021/08/26 04:28:46;;;;;;;9.15;1.50;;;15.80;99.90;;;;;;5011758;28;20030;-72
2021/08/26 04:31:12;;;;;;;9.27;1.10;;;15.90;99.90;;;;;;4994693;28;20041;-72
2021/08/26 04:33:37;;;;;;;10.32;2.13;;;15.80;99.90;;;;;;4994464;28;20030;-73
2021/08/26 04:36:03;;;;;;;10.13;2.20;;;15.90;99.90;;;;;;4997334;28;20041;-72
2021/08/26 04:38:29;;;;;;;5.93;1.65;;;15.80;99.90;;;;;;5006796;28;20029;-73
2021/08/26 04:40:54;;;;;;;10.80;2.33;;;15.90;99.90;;;;;;4995283;28;20386;-73
2021/08/26 04:43:20;;;;;;;9.65;2.50;;;15.90;99.90;;;;;;4996415;28;20073;-72
2021/08/26 04:45:46;;;;;;;10.55;2.75;;;15.80;99.90;;;;;;4996847;28;20112;-73
2021/08/26 04:48:11;;;;;;;12.48;1.70;;;15.90;99.90;;;;;;5016053;28;20026;-73
2021/08/26 04:50:37;;;;;;;9.30;1.70;;;15.90;99.90;;;;;;4998109;28;20030;-73
2021/08/26 04:53:03;;;;;;;6.28;1.15;;;15.90;99.90;;;;;;5014363;28;20033;-73
2021/08/26 04:55:28;;;;;;;4.85;1.40;;;15.90;99.90;;;;;;5011688;28;20477;-72
2021/08/26 04:57:54;;;;;;;10.30;1.58;;;15.90;99.90;;;;;;4994536;28;20022;-72
2021/08/26 05:00:20;;;;;;;15.13;1.75;;;15.90;99.90;;;;;;4994529;28;20026;-72
2021/08/26 05:02:46;;;;;;;6.15;1.90;;;15.90;99.90;;;;;;5004158;28;20109;-72
2021/08/26 05:05:11;;;;;;;15.77;2.85;;;15.90;99.90;;;;;;4998591;28;20026;-72
2021/08/26 05:07:37;;;;;;;6.05;1.50;;;15.90;99.90;;;;;;5012933;28;20026;-73
2021/08/26 05:10:04;;;;;;;4.30;1.88;;;15.90;99.90;;;;;;5009230;28;20391;-72
2021/08/26 05:12:30;;;;;;;10.02;2.60;;;15.90;99.90;;;;;;5003158;28;20047;-72
2021/08/26 05:14:56;;;;;;;7.75;2.30;;;15.90;99.90;;;;;;4996204;28;20044;-72
2021/08/26 05:17:22;;;;;;;7.68;2.15;;;15.90;99.90;;;;;;5012029;28;20037;-72
2021/08/26 05:19:48;;;;;;;11.80;2.53;;;15.90;99.90;;;;;;5011577;28;20026;-72
2021/08/26 05:22:14;;;;;;;4.15;1.77;;;15.90;99.90;;;;;;5010470;28;20455;-72
2021/08/26 05:24:40;;;;;;;10.48;1.98;;;16.00;99.90;;;;;;5011563;28;20029;-72
2021/08/26 05:27:05;;;;;;;7.47;1.98;;;15.90;99.90;;;;;;5005803;28;20042;-72
2021/08/26 05:29:31;;;;;;;17.75;1.77;;;15.90;99.90;;;;;;5005603;28;20030;-72
2021/08/26 05:31:57;;;;;;;8.15;2.10;;;15.90;99.90;;;;;;4993683;28;20030;-73
2021/08/26 05:34:23;;;;;;;7.20;1.52;;;15.90;99.90;;;;;;4997432;28;20025;-72
2021/08/26 05:36:49;;;;;;;9.80;1.52;;;15.90;99.90;;;;;;5017269;28;20029;-73
2021/08/26 05:39:14;;;;;;;5.55;1.73;;;15.90;99.90;;;;;;5012462;28;20368;-72
2021/08/26 05:41:46;;;;;;;9.35;2.55;;;15.90;99.90;;;;;;5008226;28;20052;-72
2021/08/26 05:44:15;;;;;;;6.65;2.45;;;15.90;99.90;;;;;;5008199;28;20025;-72
2021/08/26 05:46:42;;;;;;;10.95;1.50;;;15.90;99.90;;;;;;4996133;28;20065;-72
2021/08/26 05:49:07;;;;;;;5.55;1.77;;;15.90;99.90;;;;;;4997134;28;20057;-72
2021/08/26 05:51:33;;;;;;;16.10;2.90;;;15.90;99.90;;;;;;5005773;28;20030;-73
2021/08/26 05:53:58;;;;;;;6.53;1.70;;;15.90;99.90;;;;;;5013201;28;20049;-72
2021/08/26 05:56:26;;;;;;;14.35;2.63;;;16.00;99.90;;;;;;4997134;28;20507;-73
2021/08/26 05:58:52;;;;;;;14.32;3.13;;;16.00;99.90;;;;;;4997082;28;20394;-72
2021/08/26 06:01:17;;;;;;;8.93;2.90;;;16.00;99.90;;;;;;5004064;28;20026;-72
2021/08/26 06:03:43;;;;;;;6.95;1.85;;;16.00;99.90;;;;;;5014493;28;20033;-73
2021/08/26 06:06:08;;;;;;;8.27;1.55;;;16.00;99.90;;;;;;4997125;28;20422;-72
2021/08/26 06:08:34;;;;;;;7.07;1.83;;;16.10;99.90;;;;;;4996274;28;20045;-72
2021/08/26 06:11:00;;;;;;;13.10;2.08;;;16.10;99.90;;;;;;5014019;28;20479;-72
2021/08/26 06:13:25;;;;;;;13.05;2.13;;;16.10;99.90;;;;;;5014067;28;20038;-73
2021/08/26 06:15:51;;;;;;;13.40;1.50;;;16.10;99.90;;;;;;5001793;28;20533;-72
2021/08/26 06:18:17;;;;;;;7.95;1.30;;;16.10;99.90;;;;;;5015685;28;20052;-72
2021/08/26 06:20:44;;;;;;;7.68;1.50;;;16.10;99.90;;;;;;5005031;28;20021;-72
2021/08/26 06:23:09;;;;;;;11.68;2.35;;;16.10;99.90;;;;;;5015549;28;20034;-73
2021/08/26 06:25:35;;;;;;;3.70;1.40;;;16.10;99.90;;;;;;5009546;28;20042;-72
2021/08/26 06:28:02;;;;;;;10.07;1.88;;;16.20;99.90;;;;;;4999987;28;20045;-72
2021/08/26 06:30:28;;;;;;;5.47;1.27;;;16.10;99.90;;;;;;4999967;28;20457;-72
2021/08/26 06:32:53;;;;;;;4.38;0.90;;;16.10;99.90;;;;;;4997302;28;20125;-72
2021/08/26 06:35:19;;;;;;;9.30;1.60;;;16.20;99.90;;;;;;5002847;28;20045;-71
2021/08/26 06:37:45;;;;;;;12.10;1.80;;;16.30;99.90;;;;;;4999401;28;20459;-72
2021/08/26 06:40:11;;;;;;;10.18;1.52;;;16.20;99.90;;;;;;5008452;28;20417;-72
2021/08/26 06:42:37;;;;;;;9.63;1.70;;;16.30;99.90;;;;;;5015170;28;20060;-73
2021/08/26 06:45:03;;;;;;;8.65;1.60;;;16.40;99.90;;;;;;5004281;28;20434;-72
2021/08/26 06:47:29;;;;;;;6.97;1.52;;;16.40;99.90;;;;;;4995495;28;20035;-72
2021/08/26 06:49:55;;;;;;;7.93;3.58;;;16.40;99.90;;;;;;4995957;28;20368;-72
2021/08/26 06:52:20;;;;;;;7.63;2.13;;;16.50;99.90;;;;;;4999773;28;20540;-72
2021/08/26 06:54:46;;;;;;;13.65;2.38;;;16.50;99.90;;;;;;4994982;28;20015;-72
2021/08/26 06:57:11;;;;;;;7.03;1.80;;;16.60;99.90;;;;;;5010693;28;20482;-72
2021/08/26 06:59:37;;;;;;;6.82;2.05;;;16.60;99.90;;;;;;5012882;28;20097;-72
2021/08/26 07:02:03;;;;;;;8.60;1.70;;;16.60;99.90;;;;;;5012505;28;20276;-72
2021/08/26 07:04:29;;;;;;;10.63;1.77;;;16.40;99.90;;;;;;5014501;28;20394;-73
2021/08/26 07:06:55;;;;;;;6.18;2.22;;;16.40;99.90;;;;;;5012354;28;20030;-72
2021/08/26 07:09:22;;;;;;;7.22;1.20;;;16.40;99.90;;;;;;4997671;28;20038;-72
2021/08/26 07:11:48;;;;;;;3.70;1.40;;;16.40;99.90;;;;;;4995590;28;20038;-72
2021/08/26 07:14:14;;;;;;;8.43;1.67;;;16.40;99.90;;;;;;5013956;28;20717;-72
2021/08/26 07:16:40;;;;;;;3.50;1.27;;;16.50;99.90;;;;;;5014913;28;20418;-72
2021/08/26 07:19:05;;;;;;;8.43;2.05;;;16.70;99.90;;;;;;4994473;28;20088;-72
2021/08/26 07:21:32;;;;;;;4.30;1.23;;;16.80;99.90;;;;;;5008322;28;20026;-72
2021/08/26 07:23:57;;;;;;;7.75;1.10;;;16.80;99.90;;;;;;4995779;28;20474;-72
2021/08/26 07:26:23;;;;;;;4.05;1.67;;;16.70;99.90;;;;;;4995803;28;20026;-72
2021/08/26 07:28:49;;;;;;;5.45;1.17;;;16.70;99.90;;;;;;4998410;28;20398;-72
2021/08/26 07:31:15;;;;;;;3.83;1.52;;;16.70;99.90;;;;;;5014948;28;20025;-72
2021/08/26 07:33:40;;;;;;;3.35;0.80;;;16.70;99.90;;;;;;5014196;28;20037;-72
2021/08/26 07:36:06;;;;;;;7.95;1.10;;;16.70;99.90;;;;;;5015102;28;20068;-72
2021/08/26 07:38:32;;;;;;;7.70;1.58;;;16.90;99.90;;;;;;5002715;28;20018;-72
2021/08/26 07:40:57;;;;;;;1.05;0.82;;;17.00;99.90;;;;;;4995664;28;20034;-72
2021/08/26 07:43:25;;;;;;;5.38;1.17;;;17.00;99.90;;;;;;5005250;28;20034;-72
2021/08/26 07:45:51;;;;;;;;;;;17.10;99.90;;;;;;5012336;28;20033;-72
2021/08/26 07:48:17;;;;;;;5.90;0.90;;;17.00;99.90;;;;;;5014205;28;19937;-72
2021/08/26 07:50:44;;;;;;;6.43;1.15;;;17.10;99.90;;;;;;4999729;28;20495;-72
2021/08/26 07:53:09;;;;;;;5.55;1.40;;;17.00;99.90;;;;;;5005346;28;20018;-72
2021/08/26 07:55:35;;;;;;;4.88;1.38;;;17.00;99.90;;;;;;5013959;28;20022;-72
2021/08/26 07:58:01;;;;;;;3.35;1.15;;;17.00;99.90;;;;;;5006947;28;20026;-72
2021/08/26 08:00:27;;;;;;;10.35;2.03;;;17.00;99.90;;;;;;5000699;28;20093;-73
2021/08/26 08:02:52;;;;;;;4.38;1.25;;;17.00;99.90;;;;;;5016800;28;20030;-72
2021/08/26 08:05:18;;;;;;;8.18;1.25;;;17.10;99.90;;;;;;5016896;28;20110;-73
2021/08/26 08:07:45;;;;;;;13.98;1.42;;;17.00;99.90;;;;;;5005929;28;20089;-72
2021/08/26 08:10:14;;;;;;;6.95;1.30;;;17.00;99.90;;;;;;4996369;28;20100;-72
2021/08/26 08:12:40;;;;;;;8.40;1.90;;;17.20;99.90;;;;;;4995291;28;20535;-72
2021/08/26 08:15:07;;;;;;;5.25;0.80;;;17.10;99.90;;;;;;5001077;28;20054;-72
2021/08/26 08:17:33;;;;;;;3.92;1.00;;;17.20;99.90;;;;;;4995207;28;20034;-72
2021/08/26 08:19:58;;;;;;;2.70;1.05;;;17.10;99.90;;;;;;5001544;28;20026;-72
2021/08/26 08:22:24;;;;;;;4.05;1.10;;;17.20;99.90;;;;;;5014257;28;20034;-71
2021/08/26 08:24:49;;;;;;;4.13;1.20;;;17.10;99.90;;;;;;5014327;28;20034;-72
2021/08/26 08:27:15;;;;;;;3.13;0.90;;;17.20;99.90;;;;;;5008450;28;20033;-72
2021/08/26 08:29:41;;;;;;;5.65;0.98;;;17.20;99.90;;;;;;5007830;28;20034;-72
2021/08/26 08:32:06;;;;;;;5.93;2.00;;;17.10;99.90;;;;;;5012253;28;20030;-72
2021/08/26 08:34:32;;;;;;;3.72;1.45;;;17.00;99.90;;;;;;5005583;28;20041;-73
2021/08/26 08:36:58;;;;;;;5.65;1.83;;;17.10;99.90;;;;;;5013473;28;20108;-72
2021/08/26 08:42:08;;;;;;;8.68;2.42;;;17.40;99.90;;;;;;5020680;28;20032;-72
2021/08/26 08:44:35;;;;;;;8.18;1.35;;;17.30;99.90;;;;;;5017566;28;20038;-75
2021/08/26 08:47:01;;;;;;;10.17;1.40;;;17.20;99.90;;;;;;5023415;28;20037;-74
2021/08/26 08:49:28;;;;;;;7.70;1.40;;;17.30;99.90;;;;;;5006000;28;20087;-73
2021/08/26 08:51:55;;;;;;;6.82;1.13;;;17.50;99.90;;;;;;4994164;28;20483;-73
2021/08/26 08:54:23;;;;;;;8.38;1.88;;;17.70;99.90;;;;;;5013112;28;20049;-74
2021/08/26 08:56:48;;;;;;;6.35;1.70;;;17.90;99.90;;;;;;5014108;28;20033;-74
2021/08/26 08:59:15;;;;;;;6.43;1.27;;;17.90;99.90;;;;;;5010770;28;20053;-73
2021/08/26 09:01:49;;;;;;;6.05;1.50;;;17.80;99.90;;;;;;5015720;28;20113;-74
2021/08/26 09:04:15;;;;;;;9.10;2.78;;;17.80;99.90;;;;;;5011987;28;20052;-73
2021/08/26 09:06:43;;;;;;;10.02;2.20;;;17.70;99.90;;;;;;5015009;28;20053;-74
2021/08/26 09:09:10;;;;;;;6.55;1.85;;;17.50;99.90;;;;;;5015471;28;20026;-73
2021/08/26 09:11:37;;;;;;;5.78;1.30;;;17.20;99.90;;;;;;5016490;28;20022;-73
2021/08/26 09:14:11;;;;;;;4.20;0.90;;;17.00;99.90;;;;;;5012785;28;20037;-72
2021/08/26 09:16:39;;;;;;;9.27;2.00;;;16.80;99.90;;;;;;4998174;28;20030;-72
2021/08/26 09:19:18;;;;;;;5.78;1.90;;;16.80;99.90;;;;;;5012584;28;20033;-72
2021/08/26 09:21:45;;;;;;;19.52;2.05;;;16.90;99.90;;;;;;5025745;28;20017;-72
2021/08/26 09:24:10;;;;;;;8.57;1.33;;;17.00;99.90;;;;;;5012648;28;20383;-74
2021/08/26 09:26:36;;;;;;;5.85;1.42;;;17.10;99.90;;;;;;5019246;28;20093;-74
2021/08/26 09:29:05;;;;;;;5.78;1.27;;;17.30;99.90;;;;;;5018032;28;20013;-73
2021/08/26 09:31:31;;;;;;;5.18;1.63;;;17.50;99.90;;;;;;5019869;28;20028;-73
2021/08/26 09:34:02;;;;;;;10.20;1.77;;;17.60;99.90;;;;;;5016805;28;20029;-74
2021/08/26 09:36:34;;;;;;;7.90;1.70;;;17.70;99.90;;;;;;5015210;28;20084;-74
2021/08/26 09:39:00;;;;;;;6.03;1.45;;;17.60;99.90;;;;;;5018104;28;20029;-73
2021/08/26 09:41:43;;;;;;;4.70;1.70;;;17.80;99.90;;;;;;5015320;28;20021;-73
2021/08/26 09:44:19;;;;;;;7.35;1.85;;;17.90;99.90;;;;;;5018293;28;20037;-73
2021/08/26 09:46:51;;;;;;;8.85;1.50;;;17.80;99.90;;;;;;5020988;28;20125;-74
2021/08/26 09:49:23;;;;;;;10.13;2.15;;;17.80;99.90;;;;;;5018143;28;20052;-73
2021/08/26 09:52:10;;;;;;;4.75;1.75;;;17.70;99.90;;;;;;5015539;28;20073;-75
2021/08/26 09:54:37;;;;;;;7.40;1.80;;;17.80;99.90;;;;;;5020098;28;20516;-75
2021/08/26 09:57:05;;;;;;;13.57;3.08;;;17.60;99.90;;;;;;5016188;28;20060;-75
2021/08/26 09:59:54;;;;;;;10.27;2.67;;;17.70;99.90;;;;;;5016332;28;20608;-74
2021/08/26 10:02:21;;;;;;;12.63;1.92;;;17.70;99.90;;;;;;5020396;28;20120;-72
2021/08/26 10:04:48;;;;;;;10.33;2.30;;;17.60;99.90;;;;;;5017886;28;20042;-72
2021/08/26 10:07:15;;;;;;;6.22;1.95;;;17.50;99.90;;;;;;5033975;28;20493;-72
2021/08/26 10:09:42;;;;;;;6.55;3.85;;;17.60;99.90;;;;;;5023552;28;20033;-73
2021/08/26 10:12:12;;;;;;;11.48;1.83;;;17.70;99.90;;;;;;5005015;28;20054;-71
2021/08/26 10:14:39;;;;;;;13.27;2.08;;;17.70;99.90;;;;;;5023618;28;20025;-71
2021/08/26 10:17:04;;;;;;;8.52;2.05;;;17.80;99.90;;;;;;5005424;28;20104;-71
2021/08/26 10:19:30;;;;;;;9.35;2.38;;;17.80;99.90;;;;;;4996755;28;20463;-72
2021/08/26 10:21:56;;;;;;;10.35;1.73;;;17.90;99.90;;;;;;5016405;28;20107;-72
2021/08/26 10:24:22;;;;;;;14.32;2.40;;;18.00;99.90;;;;;;5014583;28;20026;-72
2021/08/26 10:26:57;;;;;;;9.75;2.03;;;18.10;99.90;;;;;;5002391;28;20026;-70
2021/08/26 10:29:23;;;;;;;10.30;2.35;;;18.20;99.90;;;;;;5015921;28;20109;-72
2021/08/26 10:31:58;;;;;;;14.77;3.85;;;18.20;99.90;;;;;;5027970;28;20041;-71
2021/08/26 10:34:26;;;;;;;14.73;2.65;;;18.30;99.90;;;;;;5027651;28;20036;-71
2021/08/26 10:36:55;;;;;;;7.80;3.47;;;18.30;99.90;;;;;;5032508;28;20028;-72
2021/08/26 10:39:39;;;;;;;6.63;2.53;;;18.30;99.90;;;;;;5016066;28;20359;-71
2021/08/26 10:42:17;;;;;;;6.78;2.72;;;18.10;99.90;;;;;;5011587;28;20042;-72
2021/08/26 10:45:04;;;;;;;9.25;2.97;;;18.10;99.90;;;;;;5013268;28;20030;-71
2021/08/26 10:47:48;;;;;;;6.10;1.92;;;18.10;99.90;;;;;;5016978;28;20034;-72
2021/08/26 10:50:19;;;;;;;5.47;2.20;;;18.10;99.90;;;;;;5015821;28;20452;-71
2021/08/26 10:53:09;;;;;;;8.80;2.63;;;18.00;99.90;;;;;;5018943;28;20025;-72
2021/08/26 10:55:45;;;;;;;12.85;2.53;;;18.00;99.90;;;;;;5017339;28;20037;-71
2021/08/26 10:58:33;;;;;;;8.07;2.25;;;18.00;99.90;;;;;;5024353;28;20030;-71
2021/08/26 11:01:11;;;;;;;7.70;2.35;;;18.00;99.90;;;;;;5034376;28;20156;-71
2021/08/26 11:03:45;;;;;;;10.48;2.30;;;18.00;99.90;;;;;;5026747;28;20026;-71
2021/08/26 11:06:17;;;;;;;12.85;2.65;;;17.90;99.90;;;;;;5036659;28;20474;-71
2021/08/26 11:08:45;;;;;;;5.50;2.10;;;17.90;99.90;;;;;;5031804;28;20044;-72
2021/08/26 11:11:32;;;;;;;14.40;2.85;;;17.80;99.90;;;;;;4998144;28;20036;-71
2021/08/26 11:14:03;;;;;;;10.65;2.65;;;17.80;99.90;;;;;;5004797;28;20065;-71
2021/08/26 11:16:29;;;;;;;16.48;3.78;;;17.80;99.90;;;;;;5025734;28;20060;-71
2021/08/26 11:19:15;;;;;;;19.13;4.13;;;17.90;99.90;;;;;;5014921;28;20026;-71
2021/08/26 11:21:44;;;;;;;10.90;3.20;;;18.00;99.90;;;;;;5013862;28;20121;-72
2021/08/26 11:24:16;;;;;;;14.65;2.33;;;18.10;99.90;;;;;;5014474;28;20351;-71
2021/08/26 11:26:48;;;;;;;17.58;3.00;;;18.10;99.90;;;;;;5014348;28;20018;-71
2021/08/26 11:29:20;;;;;;;14.32;2.83;;;18.20;99.90;;;;;;5021380;28;20022;-71
2021/08/26 11:31:55;;;;;;;12.23;3.25;;;18.40;99.90;;;;;;5015069;28;20040;-71
2021/08/26 11:34:45;;;;;;;16.80;3.58;;;18.60;99.90;;;;;;5023169;28;20037;-71
2021/08/26 11:37:17;;;;;;;8.77;3.60;;;18.60;99.90;;;;;;5033655;28;20393;-69
2021/08/26 11:39:52;;;;;;;17.80;3.38;;;18.70;99.90;;;;;;5018653;28;20021;-69
2021/08/26 11:42:18;;;;;;;12.20;3.80;;;18.70;99.90;;;;;;5019311;28;20390;-70
2021/08/26 11:44:44;;;;;;;10.30;2.90;;;18.80;99.90;;;;;;5013969;28;20045;-70
2021/08/26 11:47:10;;;;;;;8.70;2.30;;;18.80;99.90;;;;;;5014527;28;20121;-69
2021/08/26 11:49:36;;;;;;;9.35;3.33;;;18.60;99.90;;;;;;5014532;28;20068;-70
2021/08/26 11:52:07;;;;;;;9.23;2.80;;;18.50;99.90;;;;;;5034533;28;20033;-70
2021/08/26 11:54:44;;;;;;;14.13;3.00;;;18.30;99.90;;;;;;5018353;28;20030;-70
2021/08/26 11:57:10;;;;;;;10.53;2.70;;;18.10;99.90;;;;;;5019022;28;20026;-70
2021/08/26 11:59:41;;;;;;;18.85;5.07;;;18.00;99.90;;;;;;5024690;28;20080;-70
2021/08/26 12:02:17;;;;;;;9.13;3.15;;;18.00;99.90;;;;;;5014531;28;20062;-70
2021/08/26 12:04:48;;;;;;;15.48;3.97;;;17.90;99.90;;;;;;5019311;28;20121;-70
2021/08/26 12:07:22;;;;;;;13.70;2.75;;;18.10;99.90;;;;;;5028362;28;20456;-70
2021/08/26 12:09:49;;;;;;;11.88;3.08;;;18.30;99.90;;;;;;5021435;28;20438;-70
2021/08/26 12:12:15;;;;;;;11.82;2.97;;;18.40;99.90;;;;;;5033881;28;20120;-70
2021/08/26 12:14:40;;;;;;;10.85;2.95;;;18.50;99.90;;;;;;5017648;28;20062;-70
2021/08/26 12:17:18;;;;;;;16.17;3.05;;;18.60;99.90;;;;;;5029483;28;20018;-71
2021/08/26 12:19:44;;;;;;;;;;;18.60;99.90;;;;;;5025687;28;20045;-71
2021/08/26 12:22:16;;;;;;;16.30;2.80;;;18.60;99.90;;;;;;5033984;28;20336;-70
2021/08/26 12:24:56;;;;;;;9.95;2.47;;;18.40;99.90;;;;;;5023331;28;20038;-70
2021/08/26 12:27:24;;;;;;;13.07;2.10;;;18.30;99.90;;;;;;5013155;28;20038;-70
2021/08/26 12:29:51;;;;;;;8.95;3.08;;;18.20;99.90;;;;;;5017995;28;20131;-70
2021/08/26 12:32:37;;;;;;;15.37;3.97;;;18.20;99.90;;;;;;5018700;28;20447;-70
2021/08/26 12:35:16;;;;;;;8.73;2.22;;;18.20;99.90;;;;;;5023228;28;20280;-71
2021/08/26 12:37:53;;;;;;;8.82;2.00;;;18.30;99.90;;;;;;5022821;28;20040;-71
2021/08/26 12:40:19;;;;;;;5.72;2.03;;;18.40;99.90;;;;;;5016056;28;20060;-70
2021/08/26 12:42:57;;;;;;;11.23;1.83;;;18.40;99.90;;;;;;5031080;28;20033;-70
2021/08/26 12:45:23;;;;;;;14.95;2.47;;;18.60;99.90;;;;;;5030617;28;20029;-71
2021/08/26 12:47:48;;;;;;;9.20;1.98;;;18.70;99.90;;;;;;5012616;28;20052;-70
2021/08/26 12:50:32;;;;;;;11.55;2.20;;;18.80;99.90;;;;;;5031500;28;20038;-71
2021/08/26 12:52:59;;;;;;;11.00;1.67;;;19.00;99.90;;;;;;5024698;28;20478;-70
2021/08/26 12:55:25;;;;;;;9.18;2.10;;;18.90;99.90;;;;;;5019734;28;20026;-70